Time;durP1;ratioP1;P1;durP2;ratioP2;P2;SDS_P1;SDS_P2;PMS_P1;PMS_P2;Temp;Humidity;BMP_temperature;BMP_pressure;BME280_temperature;BME280_humidity;BME280_pressure;Samples;Min_cycle;Max_cycle;Signal;HPM_P1;HPM_P2
2023/06/30 00:00:25;;;;;;;8.63;2.92;;;;;;;15.32;92.70;101458.38;4955378;29;20432;-81
2023/06/30 00:02:50;;;;;;;11.93;2.53;;;;;;;15.24;93.16;101461.53;4937731;29;20388;-82
2023/06/30 00:05:16;;;;;;;9.38;2.67;;;;;;;15.10;93.45;101448.69;4955424;29;20106;-82
2023/06/30 00:07:42;;;;;;;9.27;2.75;;;;;;;15.19;94.42;101467.06;4937806;29;20354;-82
2023/06/30 00:10:08;;;;;;;9.63;2.55;;;;;;;15.00;94.23;101439.88;4955269;29;20107;-82
2023/06/30 00:12:34;;;;;;;9.25;3.03;;;;;;;14.99;94.94;101446.03;4955022;29;20023;-82
2023/06/30 00:15:00;;;;;;;10.18;2.83;;;;;;;14.91;96.13;101441.38;4955114;29;20024;-81
2023/06/30 00:17:25;;;;;;;9.15;2.88;;;;;;;15.00;96.27;101464.13;4954971;29;20037;-80
2023/06/30 00:19:51;;;;;;;7.93;2.70;;;;;;;14.82;96.96;101442.03;4955076;29;20031;-83
2023/06/30 00:22:22;;;;;;;12.68;3.17;;;;;;;14.94;97.33;101464.56;4937559;28;20035;-81
2023/06/30 00:24:58;;;;;;;10.77;2.80;;;;;;;14.80;97.62;101449.09;4954914;29;20028;-82
2023/06/30 00:27:24;;;;;;;9.27;3.10;;;;;;;14.61;98.36;101416.59;4954905;29;20059;-82
2023/06/30 00:29:49;;;;;;;8.27;3.15;;;;;;;14.87;98.83;101471.16;4954734;29;20106;-81
2023/06/30 00:32:15;;;;;;;8.35;3.17;;;;;;;14.80;99.24;101462.09;4954785;29;20035;-82
2023/06/30 00:34:40;;;;;;;8.45;3.45;;;;;;;14.76;100.00;101469.31;4954260;28;20106;-80
2023/06/30 00:37:06;;;;;;;7.45;3.30;;;;;;;14.69;100.00;101464.63;4954820;29;20031;-81
2023/06/30 00:39:31;;;;;;;12.40;3.63;;;;;;;14.58;100.00;101449.78;4954690;28;20031;-80
2023/06/30 00:41:57;;;;;;;11.52;3.60;;;;;;;14.61;100.00;101460.78;4954846;29;20019;-80
2023/06/30 00:44:22;;;;;;;8.18;3.60;;;;;;;14.50;100.00;101454.69;4937473;29;20047;-82
2023/06/30 00:46:47;;;;;;;10.43;3.42;;;;;;;14.53;100.00;101462.25;4954566;29;20520;-81
2023/06/30 00:49:13;;;;;;;9.70;3.28;;;;;;;14.31;100.00;101429.94;4954431;29;20520;-80
2023/06/30 00:51:39;;;;;;;7.35;3.00;;;;;;;14.42;100.00;101457.78;4954539;29;20126;-79
2023/06/30 00:54:04;;;;;;;8.60;3.33;;;;;;;14.38;100.00;101456.34;4954424;28;20057;-82
2023/06/30 00:56:29;;;;;;;10.60;3.92;;;;;;;14.35;100.00;101454.78;4954474;29;20477;-79
2023/06/30 00:58:57;;;;;;;9.20;3.45;;;;;;;14.13;100.00;101439.00;4954795;29;20039;-81
2023/06/30 01:01:38;;;;;;;10.68;4.25;;;;;;;14.19;100.00;101455.94;4954472;29;20074;-79
2023/06/30 01:04:29;;;;;;;9.68;3.80;;;;;;;14.20;100.00;101462.78;4954415;29;20027;-79
2023/06/30 01:07:38;;;;;;;9.38;3.70;;;;;;;14.20;100.00;101462.78;4954349;29;20077;-79
2023/06/30 01:10:07;;;;;;;11.93;4.05;;;;;;;14.21;100.00;101464.44;4876458;29;20048;-79
2023/06/30 01:12:34;;;;;;;9.65;3.70;;;;;;;14.01;100.00;101435.47;4876302;29;20045;-80
2023/06/30 01:15:01;;;;;;;11.88;4.03;;;;;;;14.01;100.00;101434.63;4876903;29;20033;-81
2023/06/30 01:17:28;;;;;;;10.82;4.07;;;;;;;13.95;100.00;101448.03;4876490;29;20121;-81
2023/06/30 01:19:55;;;;;;;10.57;3.40;;;;;;;14.05;100.00;101459.44;4876605;29;20558;-81
2023/06/30 01:22:28;;;;;;;9.32;3.47;;;;;;;13.96;100.00;101460.94;4876506;29;20038;-83
2023/06/30 01:25:01;;;;;;;7.75;3.55;;;;;;;13.93;100.00;101457.69;4876323;29;20349;-81
2023/06/30 01:27:28;;;;;;;12.68;3.60;;;;;;;13.98;100.00;101459.06;4876757;29;20177;-81
2023/06/30 01:29:53;;;;;;;8.02;3.10;;;;;;;13.98;100.00;101466.84;4876471;29;20068;-81
2023/06/30 01:32:19;;;;;;;9.45;3.50;;;;;;;13.80;100.00;101434.31;4876484;29;20101;-81
2023/06/30 01:34:45;;;;;;;10.93;3.40;;;;;;;13.84;100.00;101446.16;4876338;29;20068;-82
2023/06/30 01:37:12;;;;;;;8.70;3.42;;;;;;;13.92;100.00;101467.25;4876177;29;20041;-81
2023/06/30 01:39:37;;;;;;;9.73;3.85;;;;;;;13.85;100.00;101476.38;4876181;29;20041;-83
2023/06/30 01:42:04;;;;;;;10.45;3.58;;;;;;;13.86;100.00;101469.41;4876730;29;20029;-80
2023/06/30 01:44:29;;;;;;;10.38;3.50;;;;;;;13.66;100.00;101448.19;4918634;28;20098;-80
2023/06/30 01:46:55;;;;;;;11.40;3.70;;;;;;;13.79;100.00;101469.00;4957819;29;20027;-80
2023/06/30 01:49:21;;;;;;;10.23;3.65;;;;;;;13.74;100.00;101464.09;4957647;29;20039;-80
2023/06/30 01:51:46;;;;;;;11.27;3.55;;;;;;;13.51;100.00;101431.06;4957894;29;20042;-81
2023/06/30 01:54:12;;;;;;;10.68;3.50;;;;;;;13.59;100.00;101446.13;4957439;29;20389;-81
2023/06/30 01:56:37;;;;;;;7.78;3.33;;;;;;;13.49;100.00;101456.28;4957677;29;20568;-81
2023/06/30 01:59:02;;;;;;;6.65;2.65;;;;;;;13.46;100.00;101459.03;4957811;29;20503;-82
2023/06/30 02:01:27;;;;;;;9.90;2.83;;;;;;;13.33;100.00;101451.22;4957682;29;20054;-81
2023/06/30 02:03:53;;;;;;;9.48;3.33;;;;;;;13.29;100.00;101449.78;4957496;29;20028;-81
2023/06/30 02:06:18;;;;;;;10.27;3.28;;;;;;;13.05;100.00;101412.41;4957689;29;20054;-81
2023/06/30 02:08:43;;;;;;;9.23;3.17;;;;;;;13.25;100.00;101450.88;4957334;28;20050;-81
2023/06/30 02:11:09;;;;;;;8.18;2.92;;;;;;;13.17;100.00;101453.97;4957529;29;20023;-80
2023/06/30 02:13:36;;;;;;;7.80;2.90;;;;;;;12.71;100.00;101388.63;4957448;29;20027;-80
2023/06/30 02:16:02;;;;;;;9.73;3.17;;;;;;;12.97;100.00;101428.44;4940410;29;20027;-81
2023/06/30 02:18:27;;;;;;;9.35;3.40;;;;;;;12.90;100.00;101430.63;4958714;29;20473;-80
2023/06/30 02:20:52;;;;;;;10.10;3.30;;;;;;;12.97;100.00;101437.97;4957429;29;20035;-82
2023/06/30 02:23:17;;;;;;;8.90;3.13;;;;;;;13.00;100.00;101448.19;4958105;29;20094;-80
2023/06/30 02:25:43;;;;;;;7.85;2.70;;;;;;;12.63;100.00;101402.06;4956959;28;20571;-80
2023/06/30 02:28:08;;;;;;;10.20;3.20;;;;;;;12.89;100.00;101447.09;4957028;29;20118;-81
2023/06/30 02:30:33;;;;;;;9.52;3.20;;;;;;;12.75;100.00;101439.34;4957406;29;20027;-81
2023/06/30 02:32:59;;;;;;;8.43;3.10;;;;;;;12.63;100.00;101420.19;4957098;29;20128;-81
2023/06/30 02:35:24;;;;;;;12.98;3.78;;;;;;;12.64;100.00;101419.28;4957119;29;20118;-80
2023/06/30 02:37:50;;;;;;;8.40;2.88;;;;;;;12.73;100.00;101450.72;4956980;29;20027;-80
2023/06/30 02:40:15;;;;;;;7.82;3.53;;;;;;;12.69;100.00;101462.22;4939302;29;20486;-80
2023/06/30 02:42:41;;;;;;;9.70;3.17;;;;;;;12.62;100.00;101446.22;4956956;29;20026;-80
2023/06/30 02:45:07;;;;;;;6.70;3.25;;;;;;;12.69;100.00;101465.66;4956782;29;20402;-80
2023/06/30 02:47:32;;;;;;;8.38;3.10;;;;;;;12.59;100.00;101459.38;4956767;29;20457;-80
2023/06/30 02:49:58;;;;;;;5.88;2.97;;;;;;;12.38;100.00;101432.16;4956675;29;20068;-81
2023/06/30 02:52:23;;;;;;;8.18;3.25;;;;;;;12.52;100.00;101468.44;4939474;29;20564;-79
2023/06/30 02:54:48;;;;;;;8.02;3.17;;;;;;;12.45;100.00;101461.94;4956500;28;20034;-81
2023/06/30 02:57:14;;;;;;;8.57;3.47;;;;;;;12.42;100.00;101478.53;4955944;28;20031;-80
2023/06/30 02:59:39;;;;;;;11.00;3.35;;;;;;;12.27;100.00;101451.75;4956290;29;20061;-79
2023/06/30 03:02:04;;;;;;;9.88;3.50;;;;;;;12.15;100.00;101444.75;4956500;29;20038;-80
2023/06/30 03:04:30;;;;;;;12.80;3.67;;;;;;;12.11;100.00;101447.63;4939540;29;20127;-79
2023/06/30 03:06:55;;;;;;;8.73;3.65;;;;;;;11.85;100.00;101410.31;4956422;29;20539;-79
2023/06/30 03:09:20;;;;;;;9.05;3.60;;;;;;;12.15;100.00;101472.38;4956447;29;20024;-79
2023/06/30 03:11:46;;;;;;;8.68;3.45;;;;;;;12.12;100.00;101462.22;4956019;29;20035;-79
2023/06/30 03:14:11;;;;;;;11.95;3.88;;;;;;;12.10;100.00;101474.44;4956088;29;20473;-80
2023/06/30 03:16:37;;;;;;;7.63;3.30;;;;;;;12.07;100.00;101475.41;4956328;29;20388;-78
2023/06/30 03:19:02;;;;;;;10.15;3.90;;;;;;;11.98;100.00;101468.19;4956228;29;20069;-80
2023/06/30 03:21:27;;;;;;;11.80;4.20;;;;;;;12.02;100.00;101465.34;4956251;29;20042;-79
2023/06/30 03:23:53;;;;;;;9.25;3.72;;;;;;;11.98;100.00;101463.84;4956122;29;20118;-79
2023/06/30 03:26:18;;;;;;;11.63;4.38;;;;;;;12.01;100.00;101468.88;4955873;28;20110;-79
2023/06/30 03:28:43;;;;;;;7.55;3.90;;;;;;;12.00;100.00;101463.78;4955870;29;20114;-80
2023/06/30 03:31:08;;;;;;;9.38;3.58;;;;;;;11.97;100.00;101463.94;4955769;29;20063;-79
2023/06/30 03:33:34;;;;;;;9.35;4.00;;;;;;;11.92;100.00;101466.81;4956171;29;20023;-80
2023/06/30 03:36:00;;;;;;;8.57;4.18;;;;;;;11.89;100.00;101458.38;4956227;29;20027;-80
2023/06/30 03:38:25;;;;;;;11.13;4.05;;;;;;;11.88;100.00;101459.31;4956093;29;20393;-80
2023/06/30 03:40:50;;;;;;;9.40;3.90;;;;;;;11.90;100.00;101460.91;4955732;29;20108;-80
2023/06/30 03:43:16;;;;;;;8.90;3.90;;;;;;;11.89;100.00;101456.63;4955528;29;20023;-80
2023/06/30 03:45:41;;;;;;;9.38;4.20;;;;;;;11.87;100.00;101462.81;4955817;29;20062;-80
2023/06/30 03:48:06;;;;;;;8.43;3.83;;;;;;;11.89;100.00;101458.38;4955522;29;20452;-80
2023/06/30 03:50:32;;;;;;;10.15;4.15;;;;;;;11.81;100.00;101448.50;4938735;29;20118;-80
2023/06/30 03:52:57;;;;;;;10.07;4.63;;;;;;;11.87;100.00;101450.72;4955794;29;20422;-80
2023/06/30 03:55:23;;;;;;;11.07;4.63;;;;;;;11.60;100.00;101406.56;4955510;29;20537;-80
2023/06/30 03:57:48;;;;;;;11.23;3.92;;;;;;;11.80;100.00;101433.03;4955335;29;20039;-81
2023/06/30 04:00:14;;;;;;;12.38;4.43;;;;;;;11.89;100.00;101455.78;4955321;29;20102;-80
2023/06/30 04:02:39;;;;;;;9.05;4.30;;;;;;;11.70;100.00;101428.38;4955679;29;20389;-81
2023/06/30 04:05:05;;;;;;;9.80;4.20;;;;;;;11.95;100.00;101450.25;4955534;29;20019;-80
2023/06/30 04:07:30;;;;;;;9.23;4.50;;;;;;;11.83;100.00;101438.06;4955545;29;20401;-80
2023/06/30 04:09:56;;;;;;;10.48;4.57;;;;;;;11.99;100.00;101451.75;4937300;29;20098;-81
2023/06/30 04:12:21;;;;;;;10.35;4.63;;;;;;;12.03;100.00;101453.25;4955216;29;20027;-80
2023/06/30 04:14:46;;;;;;;12.02;4.35;;;;;;;12.05;100.00;101453.97;4955085;29;20389;-80
2023/06/30 04:17:11;;;;;;;12.07;4.80;;;;;;;12.11;100.00;101451.03;4955315;29;20121;-80
2023/06/30 04:19:37;;;;;;;12.25;5.65;;;;;;;12.15;100.00;101456.84;4955112;29;20031;-81
2023/06/30 04:22:02;;;;;;;11.45;4.57;;;;;;;12.27;100.00;101458.69;4955323;29;20500;-80
2023/06/30 04:24:28;;;;;;;11.05;4.72;;;;;;;11.96;100.00;101401.00;4955297;29;20043;-81
2023/06/30 04:26:54;;;;;;;9.90;5.03;;;;;;;12.39;100.00;101452.81;4954951;28;20504;-81
2023/06/30 04:29:19;;;;;;;12.00;4.75;;;;;;;12.21;100.00;101405.53;4954999;29;20027;-82
2023/06/30 04:31:45;;;;;;;11.75;4.72;;;;;;;12.65;100.00;101453.78;4954926;29;20082;-81
2023/06/30 04:34:10;;;;;;;13.23;4.93;;;;;;;12.72;100.00;101446.47;4954976;29;20078;-81
2023/06/30 04:36:35;;;;;;;11.73;4.60;;;;;;;12.84;100.00;101458.66;4955044;29;20023;-81
2023/06/30 04:39:01;;;;;;;11.05;4.75;;;;;;;12.94;100.00;101451.97;4954977;29;20497;-81
2023/06/30 04:41:26;;;;;;;9.30;4.60;;;;;;;13.05;100.00;101443.53;4954688;28;20495;-81
2023/06/30 04:43:52;;;;;;;11.75;4.85;;;;;;;13.14;100.00;101441.19;4954802;29;20039;-82
2023/06/30 04:46:17;;;;;;;12.98;4.78;;;;;;;13.06;100.00;101422.69;4954568;29;20488;-81
2023/06/30 04:48:42;;;;;;;10.32;4.95;;;;;;;13.26;100.00;101449.97;4954624;29;20083;-81
2023/06/30 04:51:07;;;;;;;11.88;4.20;;;;;;;13.15;100.00;101435.06;4954632;29;20031;-81
2023/06/30 04:53:33;;;;;;;10.80;5.10;;;;;;;13.08;100.00;101420.84;4937292;29;20046;-81
2023/06/30 04:55:58;;;;;;;8.10;4.68;;;;;;;13.23;100.00;101444.97;4955033;29;20371;-81
2023/06/30 04:58:24;;;;;;;9.52;4.68;;;;;;;13.38;100.00;101458.72;4937094;29;20035;-82
2023/06/30 05:00:49;;;;;;;9.50;4.75;;;;;;;13.33;100.00;101447.81;4954621;29;20034;-82
2023/06/30 05:03:15;;;;;;;11.07;4.82;;;;;;;13.26;100.00;101421.44;4937305;29;20370;-81
2023/06/30 05:05:40;;;;;;;15.32;4.95;;;;;;;13.40;100.00;101410.16;4954413;29;20421;-82
2023/06/30 05:08:06;;;;;;;11.43;4.90;;;;;;;13.99;100.00;101452.09;4954534;29;20031;-81
2023/06/30 05:10:31;;;;;;;8.10;4.10;;;;;;;14.31;99.98;101455.91;4954682;29;20066;-79
2023/06/30 05:12:56;;;;;;;12.85;5.22;;;;;;;14.45;97.94;101421.22;4937026;29;20039;-80
2023/06/30 05:15:22;;;;;;;9.20;4.30;;;;;;;14.91;96.49;101450.00;4954274;29;20141;-80
2023/06/30 05:17:50;;;;;;;8.68;4.30;;;;;;;15.19;93.86;101458.44;4954274;29;20090;-80
2023/06/30 05:20:15;;;;;;;6.47;4.28;;;;;;;15.45;91.67;101464.34;4956988;28;20114;-80
2023/06/30 05:22:40;;;;;;;9.15;4.10;;;;;;;15.61;90.21;101438.03;4960787;28;20106;-80
2023/06/30 05:25:06;;;;;;;14.00;3.83;;;;;;;16.15;88.58;101438.25;4960793;28;20019;-80
2023/06/30 05:27:32;;;;;;;8.80;3.75;;;;;;;16.81;83.24;101436.59;4960464;28;20039;-80
2023/06/30 05:29:57;;;;;;;7.57;3.58;;;;;;;17.43;79.33;101429.84;4943234;29;20031;-80
2023/06/30 05:32:23;;;;;;;9.85;3.75;;;;;;;18.41;76.40;101459.03;4960752;29;20034;-80
2023/06/30 05:34:49;;;;;;;8.23;3.55;;;;;;;19.39;70.73;101466.13;4960687;28;20031;-81
2023/06/30 05:37:15;;;;;;;11.15;3.38;;;;;;;20.04;66.34;101446.16;4960829;29;20027;-79
2023/06/30 05:39:40;;;;;;;7.55;3.00;;;;;;;21.22;63.02;101466.41;4960652;28;20046;-82
2023/06/30 05:42:06;;;;;;;8.32;3.00;;;;;;;22.07;61.46;101463.19;4961724;28;20033;-82
2023/06/30 05:44:31;;;;;;;6.22;2.67;;;;;;;22.68;59.13;101458.66;4960614;29;20039;-82
2023/06/30 05:46:56;;;;;;;8.32;3.20;;;;;;;23.24;55.81;101468.53;4960528;28;20019;-82
2023/06/30 05:49:22;;;;;;;7.85;3.42;;;;;;;23.88;53.55;101466.84;4959967;29;20047;-82
2023/06/30 05:51:48;;;;;;;6.20;2.63;;;;;;;24.39;51.91;101471.88;4960664;29;20442;-82
2023/06/30 05:54:13;;;;;;;7.57;2.80;;;;;;;24.34;50.34;101439.88;4960583;28;20019;-82
2023/06/30 05:56:39;;;;;;;7.07;2.58;;;;;;;24.92;49.18;101470.25;4960405;29;20499;-83
2023/06/30 05:59:04;;;;;;;6.75;2.72;;;;;;;25.43;47.89;101447.59;4960519;28;20043;-84
2023/06/30 06:01:30;;;;;;;6.95;2.55;;;;;;;25.91;45.79;101437.56;4943381;29;20058;-83
2023/06/30 06:03:55;;;;;;;5.40;2.30;;;;;;;26.26;44.83;101465.97;4960119;29;20028;-81
2023/06/30 06:06:21;;;;;;;4.68;2.00;;;;;;;26.52;44.56;101473.41;4942995;29;20039;-82
2023/06/30 06:08:46;;;;;;;8.05;2.15;;;;;;;26.77;42.33;101471.28;4960407;28;20035;-83
2023/06/30 06:11:12;;;;;;;7.25;1.92;;;;;;;27.39;42.92;101462.72;4942894;29;20045;-81
2023/06/30 06:13:38;;;;;;;7.45;2.30;;;;;;;27.67;41.42;101469.91;4960129;28;20038;-83
2023/06/30 06:16:05;;;;;;;5.80;2.10;;;;;;;28.30;39.62;101454.75;4942711;29;20055;-82
2023/06/30 06:18:32;;;;;;;3.28;1.95;;;;;;;28.37;37.07;101433.53;4959040;28;20122;-82
2023/06/30 06:20:58;;;;;;;7.45;1.95;;;;;;;27.87;39.96;101451.44;4960510;29;20023;-82
2023/06/30 06:23:24;;;;;;;6.32;1.80;;;;;;;28.39;39.96;101458.06;4960756;28;20027;-78
2023/06/30 06:25:50;;;;;;;5.40;2.20;;;;;;;28.28;38.12;101435.53;4960038;29;20035;-82
2023/06/30 06:30:45;;;;;;;7.45;2.03;;;;;;;28.15;38.73;101427.50;4991193;23;20051;-81
2023/06/30 06:33:11;;;;;;;5.68;1.85;;;;;;;28.65;36.75;101441.41;4975281;28;20050;-78
2023/06/30 06:35:36;;;;;;;4.82;1.50;;;;;;;28.76;35.50;101459.41;4958295;28;20074;-81
2023/06/30 06:38:02;;;;;;;3.92;1.58;;;;;;;28.94;35.98;101461.53;4975982;28;20041;-83
2023/06/30 06:40:31;;;;;;;5.03;1.65;;;;;;;29.14;34.77;101449.88;4976451;28;20142;-85
2023/06/30 06:42:56;;;;;;;4.35;1.58;;;;;;;29.56;32.46;101461.16;4976229;28;20054;-81
2023/06/30 06:45:23;;;;;;;4.80;1.13;;;;;;;29.34;34.79;101465.84;4975906;28;20046;-82
2023/06/30 06:48:16;;;;;;;4.05;1.52;;;;;;;29.59;36.14;101463.41;4976378;28;20035;-82
2023/06/30 06:50:41;;;;;;;5.53;1.25;;;;;;;29.95;33.34;101457.59;4976328;28;20114;-82
2023/06/30 06:53:07;;;;;;;4.60;1.27;;;;;;;29.92;32.88;101434.06;4958552;28;20138;-81
2023/06/30 06:55:33;;;;;;;4.85;1.48;;;;;;;30.26;31.98;101426.78;4958638;28;20031;-80
2023/06/30 06:57:58;;;;;;;3.85;1.48;;;;;;;30.68;29.45;101457.38;4975592;28;20034;-83
2023/06/30 07:00:23;;;;;;;4.45;1.48;;;;;;;30.67;29.42;101454.88;4975529;28;20034;-82
2023/06/30 07:02:49;;;;;;;4.65;1.40;;;;;;;30.27;29.39;101453.22;4975573;28;20022;-82
2023/06/30 07:05:15;;;;;;;3.85;1.10;;;;;;;30.02;29.97;101454.13;4975610;28;20086;-80
2023/06/30 07:07:40;;;;;;;3.92;1.30;;;;;;;29.93;30.45;101464.16;4975972;28;20023;-78
2023/06/30 07:10:06;;;;;;;5.57;1.35;;;;;;;30.01;29.96;101439.16;4957860;28;20097;-84
2023/06/30 07:12:32;;;;;;;3.22;1.20;;;;;;;30.56;30.07;101457.16;4975664;28;20027;-83
2023/06/30 07:14:57;;;;;;;4.88;1.50;;;;;;;30.59;29.23;101455.13;4975585;28;20033;-82
2023/06/30 07:17:22;;;;;;;4.43;1.40;;;;;;;30.85;28.74;101430.97;4975529;28;20120;-83
2023/06/30 07:19:48;;;;;;;3.97;1.20;;;;;;;31.34;27.63;101454.22;4975572;28;20542;-80
2023/06/30 07:22:14;;;;;;;4.43;1.27;;;;;;;31.24;27.53;101467.25;4975744;28;20042;-82
2023/06/30 07:24:39;;;;;;;3.55;1.23;;;;;;;31.08;27.98;101441.91;4975767;28;20027;-80
2023/06/30 07:27:05;;;;;;;5.07;1.60;;;;;;;31.33;28.28;101452.59;4975684;28;20027;-79
2023/06/30 07:29:30;;;;;;;3.42;1.08;;;;;;;31.45;28.04;101460.69;4975417;28;20030;-81
2023/06/30 07:31:55;;;;;;;4.25;1.35;;;;;;;31.38;27.97;101465.31;4975243;28;20046;-80
2023/06/30 07:34:23;;;;;;;2.58;1.20;;;;;;;31.38;27.42;101449.28;4975330;28;20037;-80
2023/06/30 07:36:51;;;;;;;3.75;1.23;;;;;;;31.47;26.76;101431.16;4957219;28;20166;-82
2023/06/30 07:39:18;;;;;;;3.00;1.10;;;;;;;31.62;27.60;101471.63;4975261;28;20055;-80
2023/06/30 07:41:43;;;;;;;4.38;1.23;;;;;;;31.30;26.56;101461.06;4975097;28;20023;-81
2023/06/30 07:44:11;;;;;;;3.20;0.95;;;;;;;30.14;28.47;101452.47;4974987;28;20038;-81
2023/06/30 07:46:38;;;;;;;3.50;1.33;;;;;;;28.38;30.61;101469.72;4975217;28;20031;-81
2023/06/30 07:49:04;;;;;;;4.28;1.30;;;;;;;26.68;33.61;101468.94;4974875;28;20034;-82
2023/06/30 07:51:30;;;;;;;3.85;1.42;;;;;;;25.39;35.68;101462.19;4975066;28;20022;-81
2023/06/30 07:53:56;;;;;;;6.72;1.58;;;;;;;24.68;39.00;101458.00;4975002;28;20494;-82
2023/06/30 07:56:22;;;;;;;3.70;1.20;;;;;;;23.90;38.64;101449.06;4974837;28;20035;-83
2023/06/30 07:58:48;;;;;;;3.58;1.52;;;;;;;23.22;39.57;101444.16;4975038;28;20027;-82
2023/06/30 08:01:13;;;;;;;6.88;1.60;;;;;;;22.92;41.73;101426.34;4974716;28;20496;-83
2023/06/30 08:03:39;;;;;;;10.52;2.50;;;;;;;22.70;42.65;101425.09;4975002;28;20035;-82
2023/06/30 08:06:04;;;;;;;5.35;1.70;;;;;;;22.37;44.15;101395.22;4974626;28;20041;-82
2023/06/30 08:08:31;;;;;;;3.03;1.35;;;;;;;22.47;41.67;101441.50;4974599;28;20392;-84
2023/06/30 08:10:56;;;;;;;5.32;1.48;;;;;;;22.48;44.70;101466.81;4974663;28;20086;-83
2023/06/30 08:13:22;;;;;;;5.18;1.10;;;;;;;22.43;44.29;101474.38;4974748;28;20060;-85
2023/06/30 08:15:47;;;;;;;5.68;1.70;;;;;;;21.99;45.28;101413.94;4974361;28;20098;-83
2023/06/30 08:18:13;;;;;;;3.72;1.58;;;;;;;22.01;44.60;101447.97;4974664;28;20026;-82
2023/06/30 08:20:38;;;;;;;6.43;1.70;;;;;;;22.11;44.37;101461.06;4974489;28;20054;-82
2023/06/30 08:23:04;;;;;;;4.47;1.65;;;;;;;22.04;46.13;101434.53;4974220;28;20027;-81
2023/06/30 08:25:29;;;;;;;5.00;1.45;;;;;;;22.24;45.52;101445.69;4974326;28;20540;-81
2023/06/30 08:27:54;;;;;;;6.32;1.63;;;;;;;22.36;46.08;101447.03;4974535;28;20031;-79
2023/06/30 08:30:20;;;;;;;4.53;1.40;;;;;;;22.44;46.25;101438.34;4960344;28;20055;-79
2023/06/30 08:32:45;;;;;;;4.45;1.42;;;;;;;22.34;44.50;101409.53;4954916;29;20544;-80
2023/06/30 08:35:10;;;;;;;3.25;1.38;;;;;;;22.61;44.78;101456.69;4954932;29;20108;-78
2023/06/30 08:37:37;;;;;;;5.40;1.33;;;;;;;22.67;45.37;101446.47;4937426;29;20047;-79
2023/06/30 08:40:03;;;;;;;5.32;1.52;;;;;;;22.72;45.92;101442.41;4937702;29;20063;-79
2023/06/30 08:42:31;;;;;;;4.30;1.52;;;;;;;22.88;42.49;101439.00;4954848;29;20441;-78
2023/06/30 08:44:59;;;;;;;3.22;1.30;;;;;;;22.58;42.38;101401.72;4954449;29;20027;-79
2023/06/30 08:47:28;;;;;;;4.80;1.63;;;;;;;22.70;41.63;101443.53;4954768;29;20031;-79
2023/06/30 08:49:54;;;;;;;4.68;1.63;;;;;;;22.71;44.08;101439.91;4937449;29;20035;-79
2023/06/30 08:52:21;;;;;;;6.07;1.48;;;;;;;22.53;43.94;101411.91;4954571;29;20030;-78
2023/06/30 08:54:46;;;;;;;5.22;1.80;;;;;;;22.65;43.86;101420.31;4937075;29;20027;-80
2023/06/30 08:57:15;;;;;;;5.07;1.70;;;;;;;22.39;43.77;101409.88;4954557;29;20393;-80
2023/06/30 08:59:42;;;;;;;7.10;2.30;;;;;;;22.39;42.97;101436.19;4954755;29;20063;-79
2023/06/30 09:02:08;;;;;;;6.78;2.60;;;;;;;22.31;44.37;101433.53;4954565;29;20098;-79
2023/06/30 09:04:35;;;;;;;4.45;1.45;;;;;;;22.37;46.45;101434.72;4954411;29;20497;-84
2023/06/30 09:07:02;;;;;;;4.35;1.70;;;;;;;22.50;44.89;101429.81;4954681;29;20821;-81
2023/06/30 09:09:33;;;;;;;5.60;1.83;;;;;;;22.66;42.16;101431.69;4954635;29;20034;-79
2023/06/30 09:11:58;;;;;;;4.05;1.52;;;;;;;22.47;44.09;101406.44;4954511;29;20437;-84
2023/06/30 09:14:27;;;;;;;6.20;1.65;;;;;;;22.55;42.07;101399.41;4954560;29;20024;-78
2023/06/30 09:16:53;;;;;;;5.15;1.67;;;;;;;22.80;42.44;101400.25;4954322;29;20024;-79
2023/06/30 09:19:18;;;;;;;4.40;1.40;;;;;;;23.05;44.87;101413.50;4954194;29;20054;-79
2023/06/30 09:21:44;;;;;;;4.70;1.88;;;;;;;23.21;44.83;101418.78;4954303;29;20401;-79
2023/06/30 09:24:10;;;;;;;5.35;1.70;;;;;;;23.14;43.74;101365.09;4954611;29;20038;-78
2023/06/30 09:26:35;;;;;;;3.38;1.48;;;;;;;23.62;41.41;101421.44;4954446;29;20039;-80
2023/06/30 09:29:01;;;;;;;5.10;1.50;;;;;;;23.64;41.75;101420.25;4954504;29;20031;-79
2023/06/30 09:31:33;;;;;;;4.38;1.90;;;;;;;23.42;42.54;101395.38;4953985;29;20085;-79
2023/06/30 09:34:10;;;;;;;3.85;1.67;;;;;;;23.48;43.21;101396.50;4954012;29;20042;-79
2023/06/30 09:36:37;;;;;;;4.47;1.63;;;;;;;23.59;43.66;101417.28;4954055;29;20059;-74
2023/06/30 09:39:05;;;;;;;5.45;1.63;;;;;;;23.56;41.29;101424.69;4954233;29;20078;-77
2023/06/30 09:41:31;;;;;;;5.72;2.20;;;;;;;23.12;39.79;101390.78;4954126;29;20565;-79
2023/06/30 09:43:57;;;;;;;5.18;1.63;;;;;;;23.55;44.51;101418.59;4954238;29;20059;-79
2023/06/30 09:46:23;;;;;;;4.00;1.60;;;;;;;23.53;42.13;101394.22;4953954;29;20030;-76
2023/06/30 09:48:53;;;;;;;7.85;1.85;;;;;;;23.74;40.40;101405.06;4954039;29;20031;-77
2023/06/30 09:51:20;;;;;;;5.82;1.70;;;;;;;23.84;41.05;101419.88;4936947;29;20125;-80
2023/06/30 09:53:46;;;;;;;4.57;1.70;;;;;;;23.69;40.09;101415.28;4954196;29;20107;-78
2023/06/30 09:56:21;;;;;;;3.15;1.50;;;;;;;23.62;41.37;101409.06;4954162;29;20129;-78
2023/06/30 09:58:47;;;;;;;7.60;1.88;;;;;;;23.58;40.80;101410.34;4953221;28;20023;-76
2023/06/30 10:01:17;;;;;;;4.30;1.52;;;;;;;23.67;41.19;101398.81;4954125;28;20488;-75
2023/06/30 10:03:50;;;;;;;5.00;1.63;;;;;;;23.98;39.87;101411.25;4954150;29;20512;-78
2023/06/30 10:06:21;;;;;;;4.55;1.77;;;;;;;23.95;40.59;101393.13;4953941;28;20034;-78
2023/06/30 10:08:48;;;;;;;;;;;;;;;24.34;42.31;101408.19;4958015;29;20028;-77
2023/06/30 10:11:14;;;;;;;3.80;1.60;;;;;;;24.24;39.44;101403.91;4957331;29;19918;-79
2023/06/30 10:13:41;;;;;;;5.97;1.90;;;;;;;24.22;38.99;101392.72;4957705;29;20027;-79
2023/06/30 10:16:09;;;;;;;4.93;1.60;;;;;;;23.96;40.74;101353.41;4957227;29;20354;-79
2023/06/30 10:18:38;;;;;;;5.45;1.83;;;;;;;23.99;40.33;101400.56;4957244;28;20114;-80
2023/06/30 10:21:03;;;;;;;11.63;2.60;;;;;;;23.59;40.77;101376.91;4957498;29;20489;-80
2023/06/30 10:23:30;;;;;;;3.72;1.83;;;;;;;23.43;40.60;101383.03;4957413;29;20106;-80
2023/06/30 10:25:57;;;;;;;3.97;1.70;;;;;;;23.67;41.75;101398.81;4957411;29;20027;-82
2023/06/30 10:28:23;;;;;;;5.55;1.83;;;;;;;23.80;39.96;101392.22;4957391;29;20027;-79
2023/06/30 10:30:51;;;;;;;4.18;1.60;;;;;;;23.77;39.30;101369.63;4956875;29;20055;-80
2023/06/30 10:33:16;;;;;;;4.38;1.67;;;;;;;24.07;40.22;101386.50;4957063;28;20438;-79
2023/06/30 10:35:42;;;;;;;4.82;1.42;;;;;;;24.23;40.67;101390.88;4957435;29;20102;-81
2023/06/30 10:38:10;;;;;;;4.15;1.75;;;;;;;24.16;39.34;101379.38;4957256;29;20035;-80
2023/06/30 10:40:35;;;;;;;5.05;1.60;;;;;;;23.96;40.27;101360.50;4957160;29;20023;-80
2023/06/30 10:43:05;;;;;;;4.13;1.50;;;;;;;23.65;39.59;101345.44;4956963;29;20038;-79
2023/06/30 10:45:34;;;;;;;4.63;1.65;;;;;;;23.83;39.54;101373.41;4956828;29;20027;-81
2023/06/30 10:48:12;;;;;;;5.07;1.88;;;;;;;23.97;40.29;101365.59;4956925;29;20063;-77
2023/06/30 10:50:44;;;;;;;6.55;1.75;;;;;;;23.91;38.18;101349.66;4957053;29;20059;-82
2023/06/30 10:53:17;;;;;;;4.35;1.67;;;;;;;23.94;38.83;101346.66;4956966;29;20027;-79
2023/06/30 10:55:43;;;;;;;3.65;1.85;;;;;;;23.92;38.44;101349.47;4956919;29;20481;-82
2023/06/30 10:58:09;;;;;;;3.88;1.75;;;;;;;24.04;37.41;101363.91;4956501;29;20035;-82
2023/06/30 11:00:34;;;;;;;4.78;1.42;;;;;;;24.08;38.08;101345.09;4956922;29;20023;-82
2023/06/30 11:03:03;;;;;;;5.78;1.90;;;;;;;24.17;39.44;101354.63;4956652;29;20034;-82
2023/06/30 11:05:30;;;;;;;5.85;1.70;;;;;;;24.27;39.96;101358.69;4956716;29;20093;-80
2023/06/30 11:08:02;;;;;;;5.05;1.67;;;;;;;24.39;39.58;101355.72;4956905;29;20039;-80
2023/06/30 11:10:37;;;;;;;4.30;1.55;;;;;;;24.50;39.50;101350.84;4956631;29;20031;-82
2023/06/30 11:13:09;;;;;;;5.70;1.63;;;;;;;24.30;38.55;101331.16;4956621;29;20031;-79
2023/06/30 11:15:43;;;;;;;3.50;1.50;;;;;;;24.40;39.29;101347.63;4956345;29;20122;-80
2023/06/30 11:18:11;;;;;;;5.18;2.10;;;;;;;24.23;39.07;101344.19;4955963;28;20417;-82